sensor_id;sensor_type;location;lat;lon;timestamp;P1;durP1;ratioP1;P2;durP2;ratioP2
18172;SDS011;9211;48.818;9.312;2023-11-21T00:02:20;6.17;;;1.80;;
18172;SDS011;9211;48.818;9.312;2023-11-21T00:04:48;7.47;;;1.88;;
18172;SDS011;9211;48.818;9.312;2023-11-21T00:07:15;8.90;;;2.03;;
18172;SDS011;9211;48.818;9.312;2023-11-21T00:09:42;5.70;;;1.40;;
18172;SDS011;9211;48.818;9.312;2023-11-21T00:12:09;5.37;;;1.53;;
18172;SDS011;9211;48.818;9.312;2023-11-21T00:14:36;8.33;;;1.90;;
18172;SDS011;9211;48.818;9.312;2023-11-21T00:17:04;6.40;;;1.67;;
18172;SDS011;9211;48.818;9.312;2023-11-21T00:19:32;6.47;;;1.83;;
18172;SDS011;9211;48.818;9.312;2023-11-21T00:22:00;6.82;;;1.63;;
18172;SDS011;9211;48.818;9.312;2023-11-21T00:24:26;6.93;;;1.97;;
18172;SDS011;9211;48.818;9.312;2023-11-21T00:26:53;6.63;;;1.90;;
18172;SDS011;9211;48.818;9.312;2023-11-21T00:29:20;5.22;;;1.70;;
18172;SDS011;9211;48.818;9.312;2023-11-21T00:31:47;6.03;;;1.75;;
18172;SDS011;9211;48.818;9.312;2023-11-21T00:34:15;7.68;;;1.95;;
18172;SDS011;9211;48.818;9.312;2023-11-21T00:36:42;5.72;;;1.90;;
18172;SDS011;9211;48.818;9.312;2023-11-21T00:39:09;8.40;;;2.17;;
18172;SDS011;9211;48.818;9.312;2023-11-21T00:41:37;7.18;;;1.98;;
18172;SDS011;9211;48.818;9.312;2023-11-21T00:44:04;11.52;;;2.35;;
18172;SDS011;9211;48.818;9.312;2023-11-21T00:46:31;6.72;;;2.10;;
18172;SDS011;9211;48.818;9.312;2023-11-21T00:48:58;7.50;;;2.30;;
18172;SDS011;9211;48.818;9.312;2023-11-21T00:51:26;8.93;;;2.38;;
18172;SDS011;9211;48.818;9.312;2023-11-21T00:53:53;7.15;;;2.15;;
18172;SDS011;9211;48.818;9.312;2023-11-21T00:56:20;8.10;;;2.20;;
18172;SDS011;9211;48.818;9.312;2023-11-21T00:58:47;6.82;;;2.15;;
18172;SDS011;9211;48.818;9.312;2023-11-21T01:01:15;7.30;;;1.95;;
18172;SDS011;9211;48.818;9.312;2023-11-21T01:03:42;7.80;;;2.33;;
18172;SDS011;9211;48.818;9.312;2023-11-21T01:06:09;6.53;;;2.00;;
18172;SDS011;9211;48.818;9.312;2023-11-21T01:08:37;8.50;;;2.10;;
18172;SDS011;9211;48.818;9.312;2023-11-21T01:11:04;7.10;;;2.10;;
18172;SDS011;9211;48.818;9.312;2023-11-21T01:13:33;8.60;;;2.10;;
18172;SDS011;9211;48.818;9.312;2023-11-21T01:16:00;5.85;;;1.73;;
18172;SDS011;9211;48.818;9.312;2023-11-21T01:18:29;5.60;;;1.88;;
18172;SDS011;9211;48.818;9.312;2023-11-21T01:20:55;5.55;;;1.73;;
18172;SDS011;9211;48.818;9.312;2023-11-21T01:23:22;6.72;;;2.10;;
18172;SDS011;9211;48.818;9.312;2023-11-21T01:25:51;4.82;;;1.75;;
18172;SDS011;9211;48.818;9.312;2023-11-21T01:28:18;6.83;;;1.60;;
18172;SDS011;9211;48.818;9.312;2023-11-21T01:30:45;8.57;;;2.05;;
18172;SDS011;9211;48.818;9.312;2023-11-21T01:33:12;5.55;;;1.40;;
18172;SDS011;9211;48.818;9.312;2023-11-21T01:35:40;4.57;;;1.30;;
18172;SDS011;9211;48.818;9.312;2023-11-21T01:38:07;5.25;;;1.25;;
18172;SDS011;9211;48.818;9.312;2023-11-21T01:40:34;4.97;;;1.23;;
18172;SDS011;9211;48.818;9.312;2023-11-21T01:43:03;6.55;;;1.70;;
18172;SDS011;9211;48.818;9.312;2023-11-21T01:45:30;5.85;;;1.40;;
18172;SDS011;9211;48.818;9.312;2023-11-21T01:47:58;4.30;;;1.40;;
18172;SDS011;9211;48.818;9.312;2023-11-21T01:50:27;4.78;;;1.30;;
18172;SDS011;9211;48.818;9.312;2023-11-21T01:52:54;6.45;;;1.55;;
18172;SDS011;9211;48.818;9.312;2023-11-21T01:55:22;6.13;;;1.40;;
18172;SDS011;9211;48.818;9.312;2023-11-21T01:57:49;5.82;;;1.50;;
18172;SDS011;9211;48.818;9.312;2023-11-21T02:00:17;6.28;;;1.60;;
18172;SDS011;9211;48.818;9.312;2023-11-21T02:02:44;7.45;;;1.40;;
18172;SDS011;9211;48.818;9.312;2023-11-21T02:05:12;5.60;;;1.40;;
18172;SDS011;9211;48.818;9.312;2023-11-21T02:07:42;5.32;;;1.45;;
18172;SDS011;9211;48.818;9.312;2023-11-21T02:10:09;5.03;;;1.33;;
18172;SDS011;9211;48.818;9.312;2023-11-21T02:12:39;4.63;;;1.20;;
18172;SDS011;9211;48.818;9.312;2023-11-21T02:15:07;3.75;;;1.20;;
18172;SDS011;9211;48.818;9.312;2023-11-21T02:17:41;4.13;;;1.10;;
18172;SDS011;9211;48.818;9.312;2023-11-21T02:20:09;3.28;;;1.13;;
18172;SDS011;9211;48.818;9.312;2023-11-21T02:22:41;3.90;;;1.10;;
18172;SDS011;9211;48.818;9.312;2023-11-21T02:25:10;2.92;;;1.20;;
18172;SDS011;9211;48.818;9.312;2023-11-21T02:27:37;5.18;;;1.02;;
18172;SDS011;9211;48.818;9.312;2023-11-21T02:30:04;3.43;;;0.93;;
18172;SDS011;9211;48.818;9.312;2023-11-21T02:32:33;3.80;;;1.20;;
18172;SDS011;9211;48.818;9.312;2023-11-21T02:35:00;3.87;;;1.23;;
18172;SDS011;9211;48.818;9.312;2023-11-21T02:37:28;3.47;;;1.08;;
18172;SDS011;9211;48.818;9.312;2023-11-21T02:39:55;3.83;;;0.90;;
18172;SDS011;9211;48.818;9.312;2023-11-21T02:42:23;3.10;;;0.90;;
18172;SDS011;9211;48.818;9.312;2023-11-21T02:44:50;3.47;;;0.70;;
18172;SDS011;9211;48.818;9.312;2023-11-21T02:47:17;3.50;;;0.70;;
18172;SDS011;9211;48.818;9.312;2023-11-21T02:49:44;2.72;;;0.80;;
18172;SDS011;9211;48.818;9.312;2023-11-21T02:52:11;3.22;;;0.80;;
18172;SDS011;9211;48.818;9.312;2023-11-21T02:54:38;4.03;;;0.93;;
18172;SDS011;9211;48.818;9.312;2023-11-21T02:57:04;1.42;;;0.80;;
18172;SDS011;9211;48.818;9.312;2023-11-21T02:59:34;2.05;;;0.77;;
18172;SDS011;9211;48.818;9.312;2023-11-21T03:02:01;2.65;;;0.90;;
18172;SDS011;9211;48.818;9.312;2023-11-21T03:04:27;3.10;;;0.90;;
18172;SDS011;9211;48.818;9.312;2023-11-21T03:06:57;5.15;;;1.10;;
18172;SDS011;9211;48.818;9.312;2023-11-21T03:09:24;3.45;;;0.90;;
18172;SDS011;9211;48.818;9.312;2023-11-21T03:11:53;4.25;;;0.93;;
18172;SDS011;9211;48.818;9.312;2023-11-21T03:14:20;2.53;;;1.05;;
18172;SDS011;9211;48.818;9.312;2023-11-21T03:16:48;4.05;;;0.98;;
18172;SDS011;9211;48.818;9.312;2023-11-21T03:19:16;2.15;;;0.90;;
18172;SDS011;9211;48.818;9.312;2023-11-21T03:21:43;3.88;;;1.00;;
18172;SDS011;9211;48.818;9.312;2023-11-21T03:24:10;4.17;;;1.10;;
18172;SDS011;9211;48.818;9.312;2023-11-21T03:26:37;3.17;;;0.93;;
18172;SDS011;9211;48.818;9.312;2023-11-21T03:29:04;2.47;;;0.88;;
18172;SDS011;9211;48.818;9.312;2023-11-21T03:31:31;2.35;;;0.90;;
18172;SDS011;9211;48.818;9.312;2023-11-21T03:33:59;4.38;;;1.00;;
18172;SDS011;9211;48.818;9.312;2023-11-21T03:36:26;3.83;;;1.10;;
18172;SDS011;9211;48.818;9.312;2023-11-21T03:38:53;3.53;;;0.90;;
18172;SDS011;9211;48.818;9.312;2023-11-21T03:41:21;2.05;;;0.85;;
18172;SDS011;9211;48.818;9.312;2023-11-21T03:43:48;3.70;;;0.95;;
18172;SDS011;9211;48.818;9.312;2023-11-21T03:46:16;5.32;;;1.00;;
18172;SDS011;9211;48.818;9.312;2023-11-21T03:48:43;4.20;;;0.90;;
18172;SDS011;9211;48.818;9.312;2023-11-21T03:51:11;3.40;;;0.95;;
18172;SDS011;9211;48.818;9.312;2023-11-21T03:53:38;4.88;;;0.93;;
18172;SDS011;9211;48.818;9.312;2023-11-21T03:56:09;4.00;;;0.85;;
18172;SDS011;9211;48.818;9.312;2023-11-21T03:58:38;3.92;;;0.90;;
18172;SDS011;9211;48.818;9.312;2023-11-21T04:01:05;3.08;;;0.95;;
18172;SDS011;9211;48.818;9.312;2023-11-21T04:03:32;3.78;;;0.80;;
18172;SDS011;9211;48.818;9.312;2023-11-21T04:05:59;2.55;;;0.80;;
18172;SDS011;9211;48.818;9.312;2023-11-21T04:08:27;3.72;;;0.90;;
18172;SDS011;9211;48.818;9.312;2023-11-21T04:10:54;4.00;;;0.93;;
18172;SDS011;9211;48.818;9.312;2023-11-21T04:13:21;3.67;;;1.10;;
18172;SDS011;9211;48.818;9.312;2023-11-21T04:15:48;3.67;;;0.90;;
18172;SDS011;9211;48.818;9.312;2023-11-21T04:18:16;2.45;;;0.70;;
18172;SDS011;9211;48.818;9.312;2023-11-21T04:20:42;3.25;;;0.80;;
18172;SDS011;9211;48.818;9.312;2023-11-21T04:23:10;2.77;;;0.70;;
18172;SDS011;9211;48.818;9.312;2023-11-21T04:25:40;2.97;;;0.80;;
18172;SDS011;9211;48.818;9.312;2023-11-21T04:28:07;3.55;;;0.85;;
18172;SDS011;9211;48.818;9.312;2023-11-21T04:30:34;3.47;;;0.70;;
18172;SDS011;9211;48.818;9.312;2023-11-21T04:33:00;3.67;;;0.88;;
18172;SDS011;9211;48.818;9.312;2023-11-21T04:35:28;3.05;;;1.00;;
18172;SDS011;9211;48.818;9.312;2023-11-21T04:37:55;2.65;;;0.80;;
18172;SDS011;9211;48.818;9.312;2023-11-21T04:40:22;2.45;;;0.80;;
18172;SDS011;9211;48.818;9.312;2023-11-21T04:42:50;2.70;;;0.80;;
18172;SDS011;9211;48.818;9.312;2023-11-21T04:45:17;7.45;;;0.93;;
18172;SDS011;9211;48.818;9.312;2023-11-21T04:47:44;2.22;;;0.85;;
18172;SDS011;9211;48.818;9.312;2023-11-21T04:50:11;4.93;;;1.10;;
18172;SDS011;9211;48.818;9.312;2023-11-21T04:52:38;3.90;;;0.90;;
18172;SDS011;9211;48.818;9.312;2023-11-21T04:55:05;3.38;;;1.00;;
18172;SDS011;9211;48.818;9.312;2023-11-21T04:57:35;4.50;;;0.90;;
18172;SDS011;9211;48.818;9.312;2023-11-21T05:00:03;4.97;;;1.10;;
18172;SDS011;9211;48.818;9.312;2023-11-21T05:02:31;3.97;;;1.10;;
18172;SDS011;9211;48.818;9.312;2023-11-21T05:05:00;3.33;;;0.98;;
18172;SDS011;9211;48.818;9.312;2023-11-21T05:07:27;6.97;;;1.15;;
18172;SDS011;9211;48.818;9.312;2023-11-21T05:09:54;4.57;;;0.90;;
18172;SDS011;9211;48.818;9.312;2023-11-21T05:12:21;7.20;;;1.05;;
18172;SDS011;9211;48.818;9.312;2023-11-21T05:14:48;4.82;;;1.00;;
18172;SDS011;9211;48.818;9.312;2023-11-21T05:17:17;3.42;;;0.90;;
18172;SDS011;9211;48.818;9.312;2023-11-21T05:19:44;2.22;;;0.80;;
18172;SDS011;9211;48.818;9.312;2023-11-21T05:22:13;5.28;;;0.90;;
18172;SDS011;9211;48.818;9.312;2023-11-21T05:24:40;4.03;;;0.90;;
18172;SDS011;9211;48.818;9.312;2023-11-21T05:27:07;5.13;;;1.00;;
18172;SDS011;9211;48.818;9.312;2023-11-21T05:29:34;4.40;;;1.10;;
18172;SDS011;9211;48.818;9.312;2023-11-21T05:32:02;3.75;;;0.80;;
18172;SDS011;9211;48.818;9.312;2023-11-21T05:34:31;3.97;;;0.80;;
18172;SDS011;9211;48.818;9.312;2023-11-21T05:36:58;5.13;;;0.77;;
18172;SDS011;9211;48.818;9.312;2023-11-21T05:39:25;3.55;;;0.70;;
18172;SDS011;9211;48.818;9.312;2023-11-21T05:41:53;4.47;;;0.90;;
18172;SDS011;9211;48.818;9.312;2023-11-21T05:44:20;3.65;;;0.70;;
18172;SDS011;9211;48.818;9.312;2023-11-21T05:46:48;2.65;;;0.70;;
18172;SDS011;9211;48.818;9.312;2023-11-21T05:49:15;3.50;;;0.70;;
18172;SDS011;9211;48.818;9.312;2023-11-21T05:51:44;4.90;;;1.00;;
18172;SDS011;9211;48.818;9.312;2023-11-21T05:54:11;4.20;;;0.80;;
18172;SDS011;9211;48.818;9.312;2023-11-21T05:56:37;2.45;;;0.60;;
18172;SDS011;9211;48.818;9.312;2023-11-21T05:59:04;2.80;;;0.80;;
18172;SDS011;9211;48.818;9.312;2023-11-21T06:01:31;3.17;;;0.90;;
18172;SDS011;9211;48.818;9.312;2023-11-21T06:03:59;5.03;;;0.80;;
18172;SDS011;9211;48.818;9.312;2023-11-21T06:06:26;6.60;;;1.00;;
18172;SDS011;9211;48.818;9.312;2023-11-21T06:08:55;5.38;;;1.00;;
18172;SDS011;9211;48.818;9.312;2023-11-21T06:11:22;4.35;;;1.00;;
18172;SDS011;9211;48.818;9.312;2023-11-21T06:13:49;2.50;;;0.80;;
18172;SDS011;9211;48.818;9.312;2023-11-21T06:16:18;4.47;;;1.00;;
18172;SDS011;9211;48.818;9.312;2023-11-21T06:18:46;2.53;;;0.68;;
18172;SDS011;9211;48.818;9.312;2023-11-21T06:21:13;3.30;;;0.90;;
18172;SDS011;9211;48.818;9.312;2023-11-21T06:23:41;1.92;;;0.85;;
18172;SDS011;9211;48.818;9.312;2023-11-21T06:26:10;4.78;;;0.98;;
18172;SDS011;9211;48.818;9.312;2023-11-21T06:28:38;2.10;;;0.82;;
18172;SDS011;9211;48.818;9.312;2023-11-21T06:31:05;4.95;;;0.80;;
18172;SDS011;9211;48.818;9.312;2023-11-21T06:33:32;2.20;;;0.68;;
18172;SDS011;9211;48.818;9.312;2023-11-21T06:35:59;1.60;;;0.70;;
18172;SDS011;9211;48.818;9.312;2023-11-21T06:38:27;2.67;;;0.70;;
18172;SDS011;9211;48.818;9.312;2023-11-21T06:40:55;2.33;;;0.80;;
18172;SDS011;9211;48.818;9.312;2023-11-21T06:43:24;2.20;;;0.57;;
18172;SDS011;9211;48.818;9.312;2023-11-21T06:45:52;2.78;;;0.90;;
18172;SDS011;9211;48.818;9.312;2023-11-21T06:48:19;2.00;;;0.65;;
18172;SDS011;9211;48.818;9.312;2023-11-21T06:50:46;2.85;;;0.73;;
18172;SDS011;9211;48.818;9.312;2023-11-21T06:53:13;3.40;;;1.00;;
18172;SDS011;9211;48.818;9.312;2023-11-21T06:55:40;4.18;;;0.70;;
18172;SDS011;9211;48.818;9.312;2023-11-21T06:58:07;1.52;;;0.70;;
18172;SDS011;9211;48.818;9.312;2023-11-21T07:00:36;1.70;;;0.70;;
18172;SDS011;9211;48.818;9.312;2023-11-21T07:03:03;1.55;;;0.90;;
18172;SDS011;9211;48.818;9.312;2023-11-21T07:05:30;4.63;;;0.82;;
18172;SDS011;9211;48.818;9.312;2023-11-21T07:07:57;2.97;;;0.95;;
18172;SDS011;9211;48.818;9.312;2023-11-21T07:10:29;4.23;;;0.87;;
18172;SDS011;9211;48.818;9.312;2023-11-21T07:12:56;2.83;;;0.80;;
18172;SDS011;9211;48.818;9.312;2023-11-21T07:15:23;3.45;;;1.10;;
18172;SDS011;9211;48.818;9.312;2023-11-21T07:17:52;2.40;;;1.10;;
18172;SDS011;9211;48.818;9.312;2023-11-21T07:20:19;3.03;;;1.20;;
18172;SDS011;9211;48.818;9.312;2023-11-21T07:22:46;2.40;;;1.00;;
18172;SDS011;9211;48.818;9.312;2023-11-21T07:25:13;3.65;;;1.08;;
18172;SDS011;9211;48.818;9.312;2023-11-21T07:27:41;2.60;;;1.10;;
18172;SDS011;9211;48.818;9.312;2023-11-21T07:30:08;4.47;;;1.00;;
18172;SDS011;9211;48.818;9.312;2023-11-21T07:32:37;2.70;;;0.90;;
18172;SDS011;9211;48.818;9.312;2023-11-21T07:35:06;1.70;;;0.90;;
18172;SDS011;9211;48.818;9.312;2023-11-21T07:37:34;3.60;;;1.00;;
18172;SDS011;9211;48.818;9.312;2023-11-21T07:40:01;2.47;;;1.10;;
18172;SDS011;9211;48.818;9.312;2023-11-21T07:42:28;2.30;;;1.30;;
18172;SDS011;9211;48.818;9.312;2023-11-21T07:44:55;2.20;;;1.00;;
18172;SDS011;9211;48.818;9.312;2023-11-21T07:47:21;3.05;;;1.00;;
18172;SDS011;9211;48.818;9.312;2023-11-21T07:49:52;2.47;;;1.10;;
18172;SDS011;9211;48.818;9.312;2023-11-21T07:52:22;4.47;;;1.20;;
18172;SDS011;9211;48.818;9.312;2023-11-21T07:54:49;5.97;;;1.80;;
18172;SDS011;9211;48.818;9.312;2023-11-21T07:57:16;6.82;;;3.10;;
18172;SDS011;9211;48.818;9.312;2023-11-21T07:59:43;4.20;;;1.70;;
18172;SDS011;9211;48.818;9.312;2023-11-21T08:02:10;4.60;;;1.60;;
18172;SDS011;9211;48.818;9.312;2023-11-21T08:04:37;5.13;;;1.60;;
18172;SDS011;9211;48.818;9.312;2023-11-21T08:07:04;3.80;;;1.80;;
18172;SDS011;9211;48.818;9.312;2023-11-21T08:09:32;5.80;;;1.80;;
18172;SDS011;9211;48.818;9.312;2023-11-21T08:11:59;5.95;;;1.80;;
18172;SDS011;9211;48.818;9.312;2023-11-21T08:14:27;5.40;;;1.80;;
18172;SDS011;9211;48.818;9.312;2023-11-21T08:16:54;5.50;;;2.00;;
18172;SDS011;9211;48.818;9.312;2023-11-21T08:19:22;5.03;;;1.58;;
18172;SDS011;9211;48.818;9.312;2023-11-21T08:21:51;4.63;;;1.70;;
18172;SDS011;9211;48.818;9.312;2023-11-21T08:24:20;4.60;;;1.80;;
18172;SDS011;9211;48.818;9.312;2023-11-21T08:26:48;5.45;;;1.83;;
18172;SDS011;9211;48.818;9.312;2023-11-21T08:29:16;3.72;;;1.55;;
18172;SDS011;9211;48.818;9.312;2023-11-21T08:31:43;3.22;;;1.40;;
18172;SDS011;9211;48.818;9.312;2023-11-21T08:34:11;2.72;;;1.30;;
18172;SDS011;9211;48.818;9.312;2023-11-21T08:36:41;3.08;;;1.40;;
18172;SDS011;9211;48.818;9.312;2023-11-21T08:39:08;5.35;;;1.40;;
18172;SDS011;9211;48.818;9.312;2023-11-21T08:41:35;3.60;;;1.50;;
18172;SDS011;9211;48.818;9.312;2023-11-21T08:44:04;4.78;;;1.45;;
18172;SDS011;9211;48.818;9.312;2023-11-21T08:46:32;5.10;;;1.70;;
18172;SDS011;9211;48.818;9.312;2023-11-21T08:49:02;4.43;;;1.38;;
18172;SDS011;9211;48.818;9.312;2023-11-21T08:51:29;4.13;;;1.50;;
18172;SDS011;9211;48.818;9.312;2023-11-21T08:53:56;5.72;;;1.50;;
18172;SDS011;9211;48.818;9.312;2023-11-21T08:56:26;3.95;;;1.65;;
18172;SDS011;9211;48.818;9.312;2023-11-21T08:58:53;3.85;;;1.67;;
18172;SDS011;9211;48.818;9.312;2023-11-21T09:01:21;4.15;;;1.77;;
18172;SDS011;9211;48.818;9.312;2023-11-21T09:03:48;3.60;;;1.60;;
18172;SDS011;9211;48.818;9.312;2023-11-21T09:06:15;4.20;;;1.58;;
18172;SDS011;9211;48.818;9.312;2023-11-21T09:08:42;4.10;;;1.50;;
18172;SDS011;9211;48.818;9.312;2023-11-21T09:11:09;5.15;;;1.52;;
18172;SDS011;9211;48.818;9.312;2023-11-21T09:13:36;3.35;;;1.40;;
18172;SDS011;9211;48.818;9.312;2023-11-21T09:16:03;4.45;;;1.50;;
18172;SDS011;9211;48.818;9.312;2023-11-21T09:18:32;4.00;;;1.55;;
18172;SDS011;9211;48.818;9.312;2023-11-21T09:20:59;3.30;;;1.40;;
18172;SDS011;9211;48.818;9.312;2023-11-21T09:23:26;3.87;;;1.40;;
18172;SDS011;9211;48.818;9.312;2023-11-21T09:25:53;4.60;;;1.10;;
18172;SDS011;9211;48.818;9.312;2023-11-21T09:28:22;4.00;;;1.30;;
18172;SDS011;9211;48.818;9.312;2023-11-21T09:30:49;3.13;;;1.13;;
18172;SDS011;9211;48.818;9.312;2023-11-21T09:33:16;2.95;;;1.08;;
18172;SDS011;9211;48.818;9.312;2023-11-21T09:35:44;2.88;;;1.02;;
18172;SDS011;9211;48.818;9.312;2023-11-21T09:38:11;2.40;;;1.20;;
18172;SDS011;9211;48.818;9.312;2023-11-21T09:40:38;3.83;;;1.20;;
18172;SDS011;9211;48.818;9.312;2023-11-21T09:43:06;3.08;;;1.30;;
18172;SDS011;9211;48.818;9.312;2023-11-21T09:45:41;2.53;;;1.05;;
18172;SDS011;9211;48.818;9.312;2023-11-21T09:48:11;2.67;;;1.17;;
18172;SDS011;9211;48.818;9.312;2023-11-21T09:50:40;4.35;;;1.00;;
18172;SDS011;9211;48.818;9.312;2023-11-21T09:53:11;2.78;;;1.10;;
18172;SDS011;9211;48.818;9.312;2023-11-21T09:55:43;3.10;;;1.10;;
18172;SDS011;9211;48.818;9.312;2023-11-21T09:58:12;3.05;;;1.20;;
18172;SDS011;9211;48.818;9.312;2023-11-21T10:00:40;2.80;;;1.20;;
18172;SDS011;9211;48.818;9.312;2023-11-21T10:03:09;3.67;;;1.20;;
18172;SDS011;9211;48.818;9.312;2023-11-21T10:05:39;2.08;;;1.10;;
18172;SDS011;9211;48.818;9.312;2023-11-21T10:08:08;2.97;;;1.23;;
18172;SDS011;9211;48.818;9.312;2023-11-21T10:10:37;3.97;;;1.40;;
18172;SDS011;9211;48.818;9.312;2023-11-21T10:13:09;2.90;;;1.30;;
18172;SDS011;9211;48.818;9.312;2023-11-21T10:15:38;2.67;;;1.40;;
18172;SDS011;9211;48.818;9.312;2023-11-21T10:18:09;5.13;;;1.67;;
18172;SDS011;9211;48.818;9.312;2023-11-21T10:20:40;3.00;;;1.40;;
18172;SDS011;9211;48.818;9.312;2023-11-21T10:23:10;4.28;;;1.70;;
18172;SDS011;9211;48.818;9.312;2023-11-21T10:25:38;3.10;;;1.70;;
18172;SDS011;9211;48.818;9.312;2023-11-21T10:28:05;3.13;;;1.40;;
18172;SDS011;9211;48.818;9.312;2023-11-21T10:30:32;2.30;;;1.40;;
18172;SDS011;9211;48.818;9.312;2023-11-21T10:33:02;3.63;;;1.67;;
18172;SDS011;9211;48.818;9.312;2023-11-21T10:38:22;3.75;;;1.35;;
18172;SDS011;9211;48.818;9.312;2023-11-21T10:40:51;3.28;;;1.50;;
18172;SDS011;9211;48.818;9.312;2023-11-21T10:43:20;3.47;;;1.35;;
18172;SDS011;9211;48.818;9.312;2023-11-21T10:45:51;2.23;;;1.20;;
18172;SDS011;9211;48.818;9.312;2023-11-21T10:48:18;2.87;;;1.10;;
18172;SDS011;9211;48.818;9.312;2023-11-21T10:50:48;1.85;;;1.10;;
18172;SDS011;9211;48.818;9.312;2023-11-21T10:53:15;1.80;;;0.80;;
18172;SDS011;9211;48.818;9.312;2023-11-21T10:55:44;2.43;;;0.70;;
18172;SDS011;9211;48.818;9.312;2023-11-21T10:58:11;2.87;;;0.60;;
18172;SDS011;9211;48.818;9.312;2023-11-21T11:00:40;0.88;;;0.50;;
18172;SDS011;9211;48.818;9.312;2023-11-21T11:03:08;0.43;;;0.30;;
18172;SDS011;9211;48.818;9.312;2023-11-21T11:05:39;0.50;;;0.30;;
18172;SDS011;9211;48.818;9.312;2023-11-21T11:08:11;0.70;;;0.40;;
18172;SDS011;9211;48.818;9.312;2023-11-21T11:10:45;2.00;;;0.60;;
18172;SDS011;9211;48.818;9.312;2023-11-21T11:13:13;1.15;;;0.80;;
18172;SDS011;9211;48.818;9.312;2023-11-21T11:15:41;2.10;;;0.98;;
18172;SDS011;9211;48.818;9.312;2023-11-21T11:18:09;2.30;;;0.90;;
18172;SDS011;9211;48.818;9.312;2023-11-21T11:20:37;1.95;;;1.00;;
18172;SDS011;9211;48.818;9.312;2023-11-21T11:23:12;1.85;;;1.00;;
18172;SDS011;9211;48.818;9.312;2023-11-21T11:25:56;2.92;;;1.38;;
18172;SDS011;9211;48.818;9.312;2023-11-21T11:28:35;4.32;;;1.35;;
18172;SDS011;9211;48.818;9.312;2023-11-21T11:31:09;2.75;;;1.35;;
18172;SDS011;9211;48.818;9.312;2023-11-21T11:33:43;2.50;;;1.30;;
18172;SDS011;9211;48.818;9.312;2023-11-21T11:36:15;4.95;;;1.60;;
18172;SDS011;9211;48.818;9.312;2023-11-21T11:38:50;2.10;;;1.30;;
18172;SDS011;9211;48.818;9.312;2023-11-21T11:41:25;1.50;;;1.00;;
18172;SDS011;9211;48.818;9.312;2023-11-21T11:43:53;1.75;;;0.90;;
18172;SDS011;9211;48.818;9.312;2023-11-21T11:46:20;2.03;;;1.10;;
18172;SDS011;9211;48.818;9.312;2023-11-21T11:49:06;1.45;;;1.00;;
18172;SDS011;9211;48.818;9.312;2023-11-21T11:51:34;2.90;;;1.00;;
18172;SDS011;9211;48.818;9.312;2023-11-21T11:54:01;1.30;;;1.00;;
18172;SDS011;9211;48.818;9.312;2023-11-21T11:56:30;1.58;;;1.00;;
18172;SDS011;9211;48.818;9.312;2023-11-21T11:59:00;1.83;;;1.20;;
18172;SDS011;9211;48.818;9.312;2023-11-21T12:01:29;2.47;;;1.20;;
18172;SDS011;9211;48.818;9.312;2023-11-21T12:06:56;1.60;;;1.00;;
18172;SDS011;9211;48.818;9.312;2023-11-21T12:09:28;1.83;;;1.10;;
18172;SDS011;9211;48.818;9.312;2023-11-21T12:11:58;2.20;;;1.20;;
18172;SDS011;9211;48.818;9.312;2023-11-21T12:14:26;1.45;;;1.20;;
18172;SDS011;9211;48.818;9.312;2023-11-21T12:16:54;2.00;;;1.30;;
18172;SDS011;9211;48.818;9.312;2023-11-21T12:19:21;2.40;;;1.40;;
18172;SDS011;9211;48.818;9.312;2023-11-21T12:21:49;2.00;;;1.30;;
18172;SDS011;9211;48.818;9.312;2023-11-21T12:24:17;3.55;;;1.60;;
18172;SDS011;9211;48.818;9.312;2023-11-21T12:26:44;2.28;;;1.42;;
18172;SDS011;9211;48.818;9.312;2023-11-21T12:29:12;2.10;;;1.10;;
18172;SDS011;9211;48.818;9.312;2023-11-21T12:31:41;1.90;;;1.00;;
18172;SDS011;9211;48.818;9.312;2023-11-21T12:34:09;1.35;;;0.88;;
18172;SDS011;9211;48.818;9.312;2023-11-21T12:36:37;2.20;;;1.00;;
18172;SDS011;9211;48.818;9.312;2023-11-21T12:39:04;2.22;;;1.23;;
18172;SDS011;9211;48.818;9.312;2023-11-21T12:41:34;1.88;;;1.00;;
18172;SDS011;9211;48.818;9.312;2023-11-21T12:44:01;3.77;;;1.00;;
18172;SDS011;9211;48.818;9.312;2023-11-21T12:46:29;1.65;;;0.90;;
18172;SDS011;9211;48.818;9.312;2023-11-21T12:48:59;2.15;;;1.00;;
18172;SDS011;9211;48.818;9.312;2023-11-21T12:51:26;1.25;;;0.98;;
18172;SDS011;9211;48.818;9.312;2023-11-21T12:53:54;1.70;;;0.80;;
18172;SDS011;9211;48.818;9.312;2023-11-21T12:56:21;1.75;;;0.90;;
18172;SDS011;9211;48.818;9.312;2023-11-21T12:58:49;1.98;;;1.10;;
18172;SDS011;9211;48.818;9.312;2023-11-21T13:01:19;1.55;;;1.10;;
18172;SDS011;9211;48.818;9.312;2023-11-21T13:03:50;2.00;;;1.10;;
18172;SDS011;9211;48.818;9.312;2023-11-21T13:06:17;2.30;;;1.10;;
18172;SDS011;9211;48.818;9.312;2023-11-21T13:08:49;1.30;;;1.00;;
18172;SDS011;9211;48.818;9.312;2023-11-21T13:11:16;1.50;;;1.10;;
18172;SDS011;9211;48.818;9.312;2023-11-21T13:13:44;2.05;;;1.30;;
18172;SDS011;9211;48.818;9.312;2023-11-21T13:16:11;1.77;;;1.13;;
18172;SDS011;9211;48.818;9.312;2023-11-21T13:18:38;2.97;;;1.83;;
18172;SDS011;9211;48.818;9.312;2023-11-21T13:21:08;5.05;;;1.83;;
18172;SDS011;9211;48.818;9.312;2023-11-21T13:23:38;2.20;;;1.50;;
18172;SDS011;9211;48.818;9.312;2023-11-21T13:26:06;1.33;;;1.23;;
18172;SDS011;9211;48.818;9.312;2023-11-21T13:28:34;1.67;;;1.10;;
18172;SDS011;9211;48.818;9.312;2023-11-21T13:31:02;1.67;;;1.30;;
18172;SDS011;9211;48.818;9.312;2023-11-21T13:33:35;2.05;;;1.63;;
18172;SDS011;9211;48.818;9.312;2023-11-21T13:36:03;2.00;;;1.55;;
18172;SDS011;9211;48.818;9.312;2023-11-21T13:38:34;2.42;;;1.83;;
18172;SDS011;9211;48.818;9.312;2023-11-21T13:41:02;3.13;;;2.00;;
18172;SDS011;9211;48.818;9.312;2023-11-21T13:43:32;2.90;;;1.60;;
18172;SDS011;9211;48.818;9.312;2023-11-21T13:45:59;1.75;;;1.50;;
18172;SDS011;9211;48.818;9.312;2023-11-21T13:48:33;3.80;;;1.70;;
18172;SDS011;9211;48.818;9.312;2023-11-21T13:51:07;3.10;;;1.80;;
18172;SDS011;9211;48.818;9.312;2023-11-21T13:53:42;3.30;;;1.70;;
18172;SDS011;9211;48.818;9.312;2023-11-21T13:56:10;3.25;;;1.80;;
18172;SDS011;9211;48.818;9.312;2023-11-21T13:58:41;3.83;;;1.80;;
18172;SDS011;9211;48.818;9.312;2023-11-21T14:01:12;2.28;;;1.80;;
18172;SDS011;9211;48.818;9.312;2023-11-21T14:04:00;2.45;;;1.90;;
18172;SDS011;9211;48.818;9.312;2023-11-21T14:06:36;2.97;;;2.10;;
18172;SDS011;9211;48.818;9.312;2023-11-21T14:09:14;3.78;;;2.00;;
18172;SDS011;9211;48.818;9.312;2023-11-21T14:11:48;2.20;;;1.88;;
18172;SDS011;9211;48.818;9.312;2023-11-21T14:14:17;2.95;;;1.90;;
18172;SDS011;9211;48.818;9.312;2023-11-21T14:16:44;2.83;;;1.90;;
18172;SDS011;9211;48.818;9.312;2023-11-21T14:19:11;2.03;;;1.60;;
18172;SDS011;9211;48.818;9.312;2023-11-21T14:21:42;3.78;;;1.60;;
18172;SDS011;9211;48.818;9.312;2023-11-21T14:24:09;3.70;;;2.30;;
18172;SDS011;9211;48.818;9.312;2023-11-21T14:26:40;5.15;;;1.80;;
18172;SDS011;9211;48.818;9.312;2023-11-21T14:29:07;3.20;;;1.23;;
18172;SDS011;9211;48.818;9.312;2023-11-21T14:31:37;1.58;;;1.15;;
18172;SDS011;9211;48.818;9.312;2023-11-21T14:34:04;1.60;;;0.80;;
18172;SDS011;9211;48.818;9.312;2023-11-21T14:36:32;2.80;;;0.90;;
18172;SDS011;9211;48.818;9.312;2023-11-21T14:38:59;1.58;;;0.90;;
18172;SDS011;9211;48.818;9.312;2023-11-21T14:41:26;2.23;;;0.90;;
18172;SDS011;9211;48.818;9.312;2023-11-21T14:43:56;1.67;;;0.95;;
18172;SDS011;9211;48.818;9.312;2023-11-21T14:46:24;1.45;;;0.90;;
18172;SDS011;9211;48.818;9.312;2023-11-21T14:48:51;2.00;;;0.90;;
18172;SDS011;9211;48.818;9.312;2023-11-21T14:51:35;2.65;;;1.05;;
18172;SDS011;9211;48.818;9.312;2023-11-21T14:54:21;1.77;;;1.10;;
18172;SDS011;9211;48.818;9.312;2023-11-21T14:57:04;1.65;;;1.08;;
18172;SDS011;9211;48.818;9.312;2023-11-21T14:59:33;1.93;;;1.20;;
18172;SDS011;9211;48.818;9.312;2023-11-21T15:02:00;6.10;;;4.38;;
18172;SDS011;9211;48.818;9.312;2023-11-21T15:04:39;4.88;;;2.78;;
18172;SDS011;9211;48.818;9.312;2023-11-21T15:07:07;2.30;;;1.52;;
18172;SDS011;9211;48.818;9.312;2023-11-21T15:09:34;2.10;;;1.40;;
18172;SDS011;9211;48.818;9.312;2023-11-21T15:12:04;1.90;;;1.30;;
18172;SDS011;9211;48.818;9.312;2023-11-21T15:14:41;1.88;;;1.10;;